Detall de PIREP

Printer-friendly versionPDF version

[2010/08/12 16:36:00]
Flight IATA:CT0001
Pilot Number:041
Company ICAO:CAT
Aircraft Type:F28/A
PAX:75
Departing Airport: LEDA
Destination Airport: LEVC
Alternate Airport:LEAL
Online: VATSIM
Route:OSVAK VILAR N609 BALDE N609 PELAT N609 DORMI N609 MATEX N609 CASIM N609 SOPET
Flight Level:FL130
No Slew and time accel
No pause
Crash detect
Detect pilot in Cockpit between each 30 and 45 minutes
16:36 Zero fuel Weight: 57505 Lbs, Fuel Weight: 11175 Lbs
16:36 VATSIM:LEDA 121630Z 27013KT 9999 FEW020CB 31/12 Q1012
16:36 VATSIM:LEVC 121630Z 09009KT 050V120 9999 FEW030 29/20 Q1012 NOSIG
16:37 VOICE CATALONIAN
16:45 Parking Brakes off
17:02 Take-off
17:02 Take off Weight: 67883 Lbs
17:02 Wind: 129º @ 007 Knots Heading: 314º
17:02 POS N41º 44´ 04´´ E000º 31´ 33´´
17:02 Gear Up: 176 Knots
17:02 Flaps:2 at 176 Knots
17:03 Flaps:0 at 209 Knots
17:08 TOC
17:08 Fuel Weight: 9468 Lb
17:17 Wind:126º@008 Knots Heading: 194º Ground Speed: 340 Knots Altitude 12982 ft
17:25 TOD
17:25 Fuel Weight: 8007 Lb
17:32 Wind:076º@008 Knots Heading: 237º Ground Speed: 224 Knots Altitude 5482 ft
17:42 Flaps:1 at 191 Knots
17:44 Flaps:2 at 197 Knots
17:44 Flaps:3 at 189 Knots
17:44 Gear Down: 176 Knots
17:44 Flaps:4 at 164 Knots
17:45 Flaps:5 at 141 Knots
17:47 Wind:080º@008 Knots Heading: 112º Ground Speed: 130 Knots Altitude 390 ft
17:47 TouchDown:Rate -174 ft/min Speed: 122 Knots
17:47 VATSIM:LEVC 121730Z 07009KT 030V110 9999 FEW030 28/19 Q1012 NOSIG
17:47 Land
17:47 Wind:080º@008 Knots
17:47 Heading: 115º
17:47 Flight Duration: 00:45
17:47 Landing Weight: 64464 Lbs
17:47 POS N39º 29´ 10´´ W000º 28´ 24´´
17:51 Parking brakes on
17:51 Block to Block Duration: 01:06
17:51 Final Fuel: 6829 Lbls
17:51 Spent Fuel: 4345 Lbls
17:51 Flight Length: 202 NM
17:51 TOD Land Length: 85 NM

Exportar CSV

Powered by Drupal - Modified by Danger4k